DAL1323 KMIA-KATL
Flight info
| Callsign | DAL1323 |
|---|---|
| Flight time | N/A |
| Altitude | 31000 |
| Route | FLMGO2 STYMY Q77 MJAMS/N0419F290 Q77 SHRKS/N0423F300 LAIRI LARZZ JJEDI4 |
| Aircraft | A21N/M-SDE2E3FGHIRWXY/LB1 |
Departure
| Time | N/A |
|---|---|
| Airport | Miami International Airport (KMIA) |
Arrival
| Time | 2026-05-05 00:31 |
|---|---|
| Airport | Hartsfield Jackson Atlanta International Airport (KATL) |
| Time | Latitude | Longitude | Altitude | Speed | Heading |
|---|---|---|---|---|---|
| 2026-05-05 00:04 | 31.99406 | -82.58273 | 31061 ft | 412 kts | 315° |
| 2026-05-05 00:04 | 32.03731 | -82.62724 | 31054 ft | 412 kts | 315° |
| 2026-05-05 00:05 | 32.08059 | -82.67157 | 31056 ft | 412 kts | 315° |
| 2026-05-05 00:05 | 32.12399 | -82.71590 | 31058 ft | 412 kts | 315° |
| 2026-05-05 00:06 | 32.16683 | -82.75965 | 30673 ft | 397 kts | 315° |
| 2026-05-05 00:06 | 32.18756 | -82.78083 | 30418 ft | 392 kts | 315° |
| 2026-05-05 00:06 | 32.20819 | -82.80197 | 30176 ft | 391 kts | 315° |
| 2026-05-05 00:06 | 32.22874 | -82.82305 | 29902 ft | 391 kts | 315° |
| 2026-05-05 00:07 | 32.24922 | -82.84405 | 29622 ft | 389 kts | 315° |
| 2026-05-05 00:07 | 32.26963 | -82.86499 | 29343 ft | 388 kts | 315° |
| 2026-05-05 00:07 | 32.28992 | -82.88584 | 29065 ft | 386 kts | 315° |
| 2026-05-05 00:07 | 32.31020 | -82.90668 | 28809 ft | 385 kts | 315° |
| 2026-05-05 00:08 | 32.33033 | -82.92737 | 28536 ft | 383 kts | 315° |
| 2026-05-05 00:08 | 32.35046 | -82.94806 | 28252 ft | 382 kts | 315° |
| 2026-05-05 00:08 | 32.37045 | -82.96866 | 27988 ft | 380 kts | 315° |
| 2026-05-05 00:08 | 32.39008 | -82.98892 | 27728 ft | 379 kts | 315° |
| 2026-05-05 00:09 | 32.40992 | -83.00932 | 27470 ft | 378 kts | 315° |
| 2026-05-05 00:09 | 32.42975 | -83.02969 | 27239 ft | 376 kts | 315° |
| 2026-05-05 00:09 | 32.44950 | -83.05001 | 26992 ft | 375 kts | 315° |
| 2026-05-05 00:09 | 32.46917 | -83.07026 | 26732 ft | 374 kts | 315° |
| 2026-05-05 00:10 | 32.48875 | -83.09044 | 26474 ft | 373 kts | 315° |
| 2026-05-05 00:10 | 32.50830 | -83.11058 | 26227 ft | 372 kts | 315° |
| 2026-05-05 00:10 | 32.52778 | -83.13069 | 25980 ft | 371 kts | 315° |
| 2026-05-05 00:10 | 32.54718 | -83.15072 | 25734 ft | 369 kts | 315° |
| 2026-05-05 00:11 | 32.56654 | -83.17072 | 25497 ft | 368 kts | 315° |
| 2026-05-05 00:11 | 32.58581 | -83.19064 | 25255 ft | 367 kts | 315° |
| 2026-05-05 00:11 | 32.60500 | -83.21051 | 24987 ft | 366 kts | 315° |
| 2026-05-05 00:11 | 32.62408 | -83.23029 | 24566 ft | 363 kts | 315° |
| 2026-05-05 00:12 | 32.64303 | -83.24995 | 24081 ft | 361 kts | 315° |
| 2026-05-05 00:12 | 32.66187 | -83.26952 | 23599 ft | 360 kts | 315° |
| 2026-05-05 00:12 | 32.68066 | -83.28903 | 23039 ft | 358 kts | 315° |
| 2026-05-05 00:12 | 32.69937 | -83.30849 | 22512 ft | 356 kts | 315° |
| 2026-05-05 00:13 | 32.71798 | -83.32786 | 22000 ft | 355 kts | 315° |
| 2026-05-05 00:13 | 32.73651 | -83.34714 | 21503 ft | 353 kts | 315° |
| 2026-05-05 00:13 | 32.75489 | -83.36627 | 21010 ft | 351 kts | 315° |
| 2026-05-05 00:13 | 32.77315 | -83.38532 | 20532 ft | 349 kts | 315° |
| 2026-05-05 00:14 | 32.79136 | -83.40432 | 20085 ft | 346 kts | 315° |
| 2026-05-05 00:14 | 32.80941 | -83.42314 | 19642 ft | 344 kts | 315° |
| 2026-05-05 00:14 | 32.82715 | -83.44167 | 19226 ft | 342 kts | 315° |
| 2026-05-05 00:14 | 32.84498 | -83.46030 | 18803 ft | 341 kts | 315° |
| 2026-05-05 00:15 | 32.86277 | -83.47890 | 18398 ft | 340 kts | 315° |
| 2026-05-05 00:15 | 32.88054 | -83.49748 | 17951 ft | 339 kts | 315° |
| 2026-05-05 00:15 | 32.89822 | -83.51598 | 17496 ft | 338 kts | 315° |
| 2026-05-05 00:15 | 32.91586 | -83.53445 | 17071 ft | 337 kts | 316° |
| 2026-05-05 00:16 | 32.93346 | -83.55286 | 16656 ft | 337 kts | 316° |
| 2026-05-05 00:16 | 32.95107 | -83.57131 | 16256 ft | 336 kts | 316° |
| 2026-05-05 00:16 | 32.96860 | -83.58969 | 15867 ft | 336 kts | 316° |
| 2026-05-05 00:16 | 32.98615 | -83.60803 | 15477 ft | 336 kts | 316° |
| 2026-05-05 00:17 | 33.00372 | -83.62642 | 15091 ft | 336 kts | 316° |
| 2026-05-05 00:17 | 33.02132 | -83.64487 | 14679 ft | 337 kts | 317° |
| 2026-05-05 00:17 | 33.03894 | -83.66335 | 14273 ft | 338 kts | 317° |
| 2026-05-05 00:17 | 33.05640 | -83.68169 | 13870 ft | 339 kts | 317° |
| 2026-05-05 00:18 | 33.07410 | -83.70037 | 13421 ft | 340 kts | 317° |
| 2026-05-05 00:18 | 33.09183 | -83.71908 | 12986 ft | 340 kts | 317° |
| 2026-05-05 00:18 | 33.10941 | -83.73760 | 12581 ft | 334 kts | 317° |
| 2026-05-05 00:18 | 33.12666 | -83.75570 | 12173 ft | 327 kts | 317° |
| 2026-05-05 00:19 | 33.14363 | -83.77351 | 11771 ft | 322 kts | 317° |
| 2026-05-05 00:19 | 33.16014 | -83.79091 | 11528 ft | 311 kts | 317° |
| 2026-05-05 00:19 | 33.17603 | -83.80767 | 11322 ft | 300 kts | 316° |
| 2026-05-05 00:19 | 33.19152 | -83.82427 | 10870 ft | 298 kts | 315° |
| 2026-05-05 00:20 | 33.20630 | -83.84158 | 10416 ft | 297 kts | 313° |
| 2026-05-05 00:20 | 33.22085 | -83.85893 | 10018 ft | 294 kts | 313° |
| 2026-05-05 00:20 | 33.23525 | -83.87612 | 9598 ft | 291 kts | 313° |
| 2026-05-05 00:20 | 33.24955 | -83.89318 | 9197 ft | 291 kts | 313° |
| 2026-05-05 00:21 | 33.26389 | -83.91030 | 8805 ft | 292 kts | 313° |
| 2026-05-05 00:21 | 33.27818 | -83.92736 | 8439 ft | 288 kts | 313° |
| 2026-05-05 00:21 | 33.29228 | -83.94419 | 8112 ft | 285 kts | 313° |
| 2026-05-05 00:21 | 33.30629 | -83.96096 | 8017 ft | 285 kts | 313° |
| 2026-05-05 00:22 | 33.32030 | -83.97775 | 7999 ft | 285 kts | 313° |
| 2026-05-05 00:22 | 33.33408 | -83.99423 | 7993 ft | 275 kts | 312° |
| 2026-05-05 00:22 | 33.34754 | -84.01034 | 7906 ft | 274 kts | 314° |
| 2026-05-05 00:22 | 33.36280 | -84.02398 | 7703 ft | 276 kts | 327° |
| 2026-05-05 00:23 | 33.37937 | -84.03550 | 7481 ft | 275 kts | 328° |
| 2026-05-05 00:23 | 33.39598 | -84.04695 | 7249 ft | 275 kts | 328° |
| 2026-05-05 00:23 | 33.41247 | -84.05843 | 7016 ft | 274 kts | 327° |
| 2026-05-05 00:23 | 33.42888 | -84.07000 | 6786 ft | 273 kts | 327° |
| 2026-05-05 00:24 | 33.44523 | -84.08157 | 6556 ft | 273 kts | 327° |
| 2026-05-05 00:24 | 33.46139 | -84.09304 | 6315 ft | 266 kts | 327° |
| 2026-05-05 00:24 | 33.47711 | -84.10422 | 6058 ft | 259 kts | 327° |
| 2026-05-05 00:24 | 33.49238 | -84.11508 | 5811 ft | 252 kts | 327° |
| 2026-05-05 00:25 | 33.50730 | -84.12573 | 5555 ft | 246 kts | 327° |
| 2026-05-05 00:25 | 33.52161 | -84.13595 | 5297 ft | 240 kts | 327° |
| 2026-05-05 00:25 | 33.53582 | -84.14608 | 5051 ft | 236 kts | 327° |
| 2026-05-05 00:25 | 33.54988 | -84.15613 | 4810 ft | 235 kts | 327° |
| 2026-05-05 00:26 | 33.56392 | -84.16622 | 4560 ft | 235 kts | 327° |
| 2026-05-05 00:26 | 33.57794 | -84.17625 | 4305 ft | 234 kts | 327° |
| 2026-05-05 00:26 | 33.59194 | -84.18624 | 4060 ft | 233 kts | 327° |
| 2026-05-05 00:26 | 33.60581 | -84.19617 | 3807 ft | 232 kts | 327° |
| 2026-05-05 00:27 | 33.61968 | -84.20622 | 3551 ft | 232 kts | 323° |
| 2026-05-05 00:27 | 33.63046 | -84.21978 | 3288 ft | 221 kts | 290° |
| 2026-05-05 00:27 | 33.63295 | -84.23719 | 3047 ft | 211 kts | 265° |
| 2026-05-05 00:27 | 33.63240 | -84.25469 | 2978 ft | 204 kts | 264° |
| 2026-05-05 00:28 | 33.63193 | -84.27134 | 2975 ft | 198 kts | 265° |
| 2026-05-05 00:28 | 33.63184 | -84.28790 | 2989 ft | 197 kts | 266° |
| 2026-05-05 00:28 | 33.63182 | -84.30379 | 2886 ft | 187 kts | 266° |
| 2026-05-05 00:28 | 33.63182 | -84.31932 | 2664 ft | 183 kts | 266° |
| 2026-05-05 00:29 | 33.63182 | -84.33392 | 2468 ft | 168 kts | 265° |
| 2026-05-05 00:29 | 33.63182 | -84.34725 | 2262 ft | 151 kts | 264° |
| 2026-05-05 00:29 | 33.63181 | -84.35962 | 2029 ft | 147 kts | 264° |
| 2026-05-05 00:29 | 33.63181 | -84.37189 | 1820 ft | 147 kts | 265° |
| 2026-05-05 00:30 | 33.63181 | -84.38411 | 1609 ft | 146 kts | 267° |
| 2026-05-05 00:30 | 33.63188 | -84.39604 | 1378 ft | 144 kts | 268° |
| 2026-05-05 00:30 | 33.63184 | -84.40807 | 1203 ft | 143 kts | 266° |
| 2026-05-05 00:30 | 33.63188 | -84.41996 | 1037 ft | 142 kts | 266° |
| 2026-05-05 00:31 | 33.63181 | -84.43105 | 1014 ft | 106 kts | 269° |
| 2026-05-05 00:31 | 33.63174 | -84.43619 | 1013 ft | 18 kts | 268° |
| 2026-05-05 00:31 | 33.63174 | -84.43711 | 1012 ft | 14 kts | 272° |
| 2026-05-05 00:31 | 33.63178 | -84.43849 | 1010 ft | 20 kts | 272° |
| 2026-05-05 00:32 | 33.63191 | -84.44020 | 1010 ft | 21 kts | 285° |
| 2026-05-05 00:32 | 33.63239 | -84.44195 | 1011 ft | 23 kts | 301° |
| 2026-05-05 00:32 | 33.63334 | -84.44246 | 1011 ft | 15 kts | 19° |
| 2026-05-05 00:32 | 33.63433 | -84.44191 | 1011 ft | 17 kts | 353° |
| 2026-05-05 00:33 | 33.63559 | -84.44192 | 1013 ft | 19 kts | 4° |
| 2026-05-05 00:33 | 33.63624 | -84.44187 | 1012 ft | 5 kts | 3° |
| 2026-05-05 00:33 | 33.63658 | -84.44165 | 1012 ft | 7 kts | 65° |
| 2026-05-05 00:33 | 33.63664 | -84.44099 | 1012 ft | 9 kts | 90° |
| 2026-05-05 00:34 | 33.63664 | -84.44013 | 1012 ft | 11 kts | 90° |
| 2026-05-05 00:34 | 33.63665 | -84.43912 | 1012 ft | 13 kts | 90° |
| 2026-05-05 00:34 | 33.63665 | -84.43795 | 1012 ft | 15 kts | 89° |
| 2026-05-05 00:34 | 33.63735 | -84.43721 | 1012 ft | 16 kts | 351° |
| 2026-05-05 00:35 | 33.63851 | -84.43721 | 1012 ft | 16 kts | 1° |
| 2026-05-05 00:35 | 33.63932 | -84.43720 | 1012 ft | 8 kts | 360° |
| 2026-05-05 00:35 | 33.63958 | -84.43687 | 1012 ft | 6 kts | 86° |
| 2026-05-05 00:35 | 33.63958 | -84.43650 | 1012 ft | 2 kts | 90° |
| 2026-05-05 00:36 | 33.63958 | -84.43646 | 1012 ft | 0 kts | 90° |